Time;durP1;ratioP1;P1;durP2;ratioP2;P2;SDS_P1;SDS_P2;PMS_P1;PMS_P2;Temp;Humidity;BMP_temperature;BMP_pressure;BME280_temperature;BME280_humidity;BME280_pressure;Samples;Min_cycle;Max_cycle;Signal;HPM_P1;HPM_P2
2023/08/28 00:02:19;;;;;;;0.70;0.67;;;14.90;99.90;;;;;;5006959;28;20242;-85
2023/08/28 00:04:45;;;;;;;0.70;0.70;;;14.90;99.90;;;;;;5001814;28;20210;-86
2023/08/28 00:07:12;;;;;;;0.93;0.90;;;14.90;99.90;;;;;;4999755;28;20364;-84
2023/08/28 00:09:38;;;;;;;0.80;0.80;;;14.80;99.90;;;;;;5009040;28;20226;-87
2023/08/28 00:12:04;;;;;;;0.60;0.60;;;14.80;99.90;;;;;;5024503;28;20599;-83
2023/08/28 00:14:30;;;;;;;0.80;0.80;;;14.80;99.90;;;;;;4988868;28;20217;-86
2023/08/28 00:16:56;;;;;;;0.70;0.60;;;14.80;99.90;;;;;;5017693;28;20213;-87
2023/08/28 00:19:22;;;;;;;2.50;0.90;;;14.80;99.90;;;;;;5014635;28;20616;-84
2023/08/28 00:21:47;;;;;;;0.90;0.90;;;14.90;99.90;;;;;;5010982;28;20845;-86
2023/08/28 00:24:13;;;;;;;0.50;0.50;;;14.90;99.90;;;;;;5024192;28;20233;-82
2023/08/28 00:26:39;;;;;;;0.73;0.73;;;15.00;99.90;;;;;;5003982;28;20195;-87
2023/08/28 00:29:04;;;;;;;0.57;0.50;;;15.00;99.90;;;;;;4989324;28;20220;-84
2023/08/28 00:31:30;;;;;;;1.50;0.40;;;15.00;99.90;;;;;;5015143;28;20283;-86
2023/08/28 00:33:56;;;;;;;0.53;0.53;;;15.00;99.90;;;;;;5024557;28;20939;-83
2023/08/28 00:36:21;;;;;;;3.20;0.43;;;15.00;99.90;;;;;;5041984;28;20194;-85
2023/08/28 00:38:47;;;;;;;3.50;0.73;;;14.90;99.90;;;;;;5007737;28;20218;-87
2023/08/28 00:41:13;;;;;;;0.47;0.47;;;14.90;99.90;;;;;;5007748;28;20985;-86
2023/08/28 00:43:39;;;;;;;1.60;0.57;;;14.90;99.90;;;;;;5007552;28;20218;-85
2023/08/28 00:46:05;;;;;;;0.50;0.50;;;14.90;99.90;;;;;;5024788;28;20623;-86
2023/08/28 00:48:31;;;;;;;2.83;0.50;;;14.80;99.90;;;;;;5024091;28;20233;-83
2023/08/28 00:51:00;;;;;;;0.20;0.20;;;14.80;99.90;;;;;;5041721;28;20243;-86
2023/08/28 00:53:26;;;;;;;0.30;0.30;;;14.80;99.90;;;;;;5025068;28;20332;-85
2023/08/28 00:55:53;;;;;;;0.40;0.40;;;14.70;99.90;;;;;;5024069;28;20355;-83
2023/08/28 00:58:20;;;;;;;2.20;0.80;;;14.70;99.90;;;;;;5041424;28;20267;-86
2023/08/28 01:00:45;;;;;;;0.27;0.27;;;14.70;99.90;;;;;;5023431;28;20284;-84
2023/08/28 01:03:11;;;;;;;2.60;0.57;;;14.70;99.90;;;;;;5024300;28;20249;-86
2023/08/28 01:05:56;;;;;;;0.20;0.20;;;14.70;99.90;;;;;;5024365;28;20193;-86
2023/08/28 01:08:54;;;;;;;0.40;0.40;;;14.60;99.90;;;;;;5023863;28;20271;-85
2023/08/28 01:11:42;;;;;;;0.60;0.60;;;14.60;99.90;;;;;;5023638;28;20631;-86
2023/08/28 01:14:25;;;;;;;0.20;0.20;;;14.50;99.90;;;;;;5040253;28;20674;-85
2023/08/28 01:16:55;;;;;;;0.87;0.50;;;14.50;99.90;;;;;;5023218;28;20214;-86
2023/08/28 01:19:36;;;;;;;0.20;0.13;;;14.50;99.90;;;;;;5041101;28;20234;-85
2023/08/28 01:22:37;;;;;;;1.90;0.70;;;14.50;99.90;;;;;;5040532;28;20751;-87
2023/08/28 01:25:09;;;;;;;0.30;0.30;;;14.50;99.90;;;;;;5001722;28;20217;-83
2023/08/28 01:27:37;;;;;;;0.30;0.30;;;14.50;99.90;;;;;;5041399;28;20667;-83
2023/08/28 01:30:11;;;;;;;0.30;0.30;;;14.50;99.90;;;;;;5023753;28;20996;-85
2023/08/28 01:32:38;;;;;;;1.27;0.70;;;14.50;99.90;;;;;;5003469;28;20766;-86
2023/08/28 01:35:25;;;;;;;1.17;0.80;;;14.50;99.90;;;;;;5036764;28;20218;-86
2023/08/28 01:38:09;;;;;;;0.20;0.20;;;14.50;99.90;;;;;;5020076;28;20378;-87
2023/08/28 01:40:53;;;;;;;0.50;0.50;;;14.50;99.90;;;;;;5011510;28;20230;-85
2023/08/28 01:43:22;;;;;;;0.33;0.33;;;14.50;99.90;;;;;;5012233;28;20206;-85
2023/08/28 01:45:50;;;;;;;0.70;0.67;;;14.60;99.90;;;;;;5017180;28;20295;-86
2023/08/28 01:48:16;;;;;;;0.33;0.33;;;14.60;99.90;;;;;;5022015;28;20217;-85
2023/08/28 01:50:42;;;;;;;6.90;0.50;;;14.60;99.90;;;;;;5023283;28;20332;-86
2023/08/28 01:53:07;;;;;;;0.30;0.30;;;14.60;99.90;;;;;;5024029;28;20225;-86
2023/08/28 01:55:45;;;;;;;1.70;0.70;;;14.70;99.90;;;;;;5031730;28;20221;-87
2023/08/28 01:58:12;;;;;;;10.83;0.87;;;14.70;99.90;;;;;;5031626;28;21018;-84
2023/08/28 02:00:38;;;;;;;3.40;0.50;;;14.70;99.90;;;;;;4990240;28;20223;-85
2023/08/28 02:03:05;;;;;;;0.57;0.50;;;14.80;99.90;;;;;;5023395;28;20226;-86
2023/08/28 02:05:32;;;;;;;0.30;0.30;;;14.80;99.90;;;;;;5002625;28;20222;-83
2023/08/28 02:07:57;;;;;;;0.80;0.60;;;14.80;99.90;;;;;;5018968;28;20356;-85
2023/08/28 02:10:23;;;;;;;0.50;0.50;;;14.80;99.90;;;;;;4992578;28;20293;-87
2023/08/28 02:12:49;;;;;;;4.60;1.23;;;14.80;99.90;;;;;;5034435;28;20222;-83
2023/08/28 02:15:14;;;;;;;0.70;0.70;;;14.80;99.90;;;;;;5001361;28;20201;-86
2023/08/28 02:17:40;;;;;;;0.97;0.30;;;14.80;99.90;;;;;;5006454;28;20190;-83
2023/08/28 02:20:08;;;;;;;7.00;0.40;;;14.80;99.90;;;;;;5006675;28;20222;-84
2023/08/28 02:22:34;;;;;;;0.50;0.50;;;14.80;99.90;;;;;;5032051;28;20218;-87
2023/08/28 02:25:00;;;;;;;0.30;0.30;;;14.80;99.90;;;;;;5015423;28;20684;-85
2023/08/28 02:27:25;;;;;;;0.67;0.67;;;14.80;99.90;;;;;;4988707;28;20317;-84
2023/08/28 02:29:51;;;;;;;0.50;0.50;;;14.80;99.90;;;;;;5022234;28;20201;-84
2023/08/28 02:32:17;;;;;;;0.37;0.37;;;14.80;99.90;;;;;;5004881;28;20218;-86
2023/08/28 02:34:43;;;;;;;0.40;0.40;;;14.80;99.90;;;;;;5032253;28;20221;-87
2023/08/28 02:37:09;;;;;;;1.00;0.50;;;14.70;99.90;;;;;;5030245;28;20295;-83
2023/08/28 02:39:35;;;;;;;0.17;0.17;;;14.70;99.90;;;;;;5023619;28;20229;-84
2023/08/28 02:42:00;;;;;;;0.77;0.60;;;14.70;99.90;;;;;;5023057;28;20187;-84
2023/08/28 02:44:26;;;;;;;1.13;1.03;;;14.80;99.90;;;;;;4986870;28;20241;-86
2023/08/28 02:46:52;;;;;;;0.30;0.30;;;14.70;99.90;;;;;;4999691;28;20238;-85
2023/08/28 02:49:18;;;;;;;0.30;0.30;;;14.70;99.90;;;;;;5012788;28;21064;-85
2023/08/28 02:51:43;;;;;;;1.47;0.60;;;14.70;99.90;;;;;;5007515;28;20218;-83
2023/08/28 02:54:09;;;;;;;1.00;0.37;;;14.70;99.90;;;;;;5004834;28;20240;-86
2023/08/28 02:56:38;;;;;;;0.30;0.30;;;14.70;99.90;;;;;;4970352;28;20233;-82
2023/08/28 02:59:04;;;;;;;1.00;0.63;;;14.70;99.90;;;;;;4985294;28;20218;-85
2023/08/28 03:01:36;;;;;;;0.30;0.30;;;14.70;99.90;;;;;;5007985;28;20242;-86
2023/08/28 03:04:05;;;;;;;0.30;0.30;;;14.70;99.90;;;;;;4963820;28;20226;-87
2023/08/28 03:06:35;;;;;;;0.33;0.33;;;14.70;99.90;;;;;;5010663;28;20219;-86
2023/08/28 03:09:01;;;;;;;0.30;0.30;;;14.70;99.90;;;;;;4979489;28;20200;-84
2023/08/28 03:11:26;;;;;;;0.30;0.30;;;14.70;99.90;;;;;;4996642;28;20225;-84
2023/08/28 03:13:52;;;;;;;1.67;0.47;;;14.80;99.90;;;;;;4982081;28;20233;-84
2023/08/28 03:16:18;;;;;;;0.70;0.50;;;14.80;99.90;;;;;;5003200;28;20238;-84
2023/08/28 03:18:44;;;;;;;0.43;0.43;;;14.90;99.90;;;;;;5003696;28;20261;-87
2023/08/28 03:21:09;;;;;;;1.03;0.60;;;14.90;99.90;;;;;;4985724;28;20531;-87
2023/08/28 03:23:35;;;;;;;0.20;0.20;;;15.00;99.90;;;;;;4986460;28;20187;-83
2023/08/28 03:26:02;;;;;;;1.07;0.77;;;15.00;99.90;;;;;;5003015;28;20265;-86
2023/08/28 03:28:28;;;;;;;0.33;0.33;;;15.00;99.90;;;;;;4986389;28;20226;-87
2023/08/28 03:30:57;;;;;;;0.40;0.40;;;15.00;99.90;;;;;;5003043;28;20226;-84
2023/08/28 03:33:23;;;;;;;0.43;0.43;;;15.10;99.90;;;;;;5004171;28;20194;-84
2023/08/28 03:35:49;;;;;;;1.90;0.93;;;15.00;99.90;;;;;;4999767;28;20180;-87
2023/08/28 03:38:15;;;;;;;0.40;0.40;;;15.00;99.90;;;;;;4986142;28;20274;-85
2023/08/28 03:40:40;;;;;;;0.97;0.90;;;15.00;99.90;;;;;;5002750;28;21376;-85
2023/08/28 03:43:06;;;;;;;5.27;0.83;;;15.00;99.90;;;;;;5002442;28;20222;-85
2023/08/28 03:45:32;;;;;;;0.43;0.43;;;14.90;99.90;;;;;;5003734;28;21224;-85
2023/08/28 03:47:58;;;;;;;0.50;0.50;;;14.90;99.90;;;;;;5002841;28;21415;-87
2023/08/28 03:50:24;;;;;;;0.70;0.50;;;14.80;99.90;;;;;;5002206;28;21049;-86
2023/08/28 03:52:50;;;;;;;0.40;0.40;;;14.70;99.90;;;;;;5002702;28;20211;-85
2023/08/28 03:55:15;;;;;;;2.37;1.07;;;14.70;99.90;;;;;;5001777;28;20269;-84
2023/08/28 03:57:41;;;;;;;0.80;0.50;;;14.60;99.90;;;;;;5002307;28;20310;-86
2023/08/28 04:00:12;;;;;;;0.93;0.60;;;14.60;99.90;;;;;;5002857;28;20230;-86
2023/08/28 04:02:38;;;;;;;2.97;1.00;;;14.50;99.90;;;;;;5032631;28;20274;-83
2023/08/28 04:05:06;;;;;;;0.40;0.40;;;14.50;99.90;;;;;;5008412;28;20726;-87
2023/08/28 04:07:32;;;;;;;0.50;0.50;;;14.40;99.90;;;;;;5043056;28;20210;-84
2023/08/28 04:09:58;;;;;;;0.97;0.57;;;14.40;99.90;;;;;;5007820;28;20629;-84
2023/08/28 04:12:24;;;;;;;0.40;0.37;;;14.40;99.90;;;;;;5012787;28;20178;-87
2023/08/28 04:14:49;;;;;;;0.70;0.43;;;14.30;99.90;;;;;;5042565;28;20197;-86
2023/08/28 04:17:16;;;;;;;1.57;0.80;;;14.30;99.90;;;;;;5007249;28;20671;-86
2023/08/28 04:19:42;;;;;;;0.97;0.80;;;14.30;99.90;;;;;;5042380;28;20344;-83
2023/08/28 04:22:08;;;;;;;2.13;0.87;;;14.30;99.90;;;;;;5024433;28;20218;-87
2023/08/28 04:24:34;;;;;;;2.23;0.77;;;14.30;99.90;;;;;;5008068;28;20214;-86
2023/08/28 04:27:00;;;;;;;1.23;1.17;;;14.30;99.90;;;;;;5041402;28;20209;-82
2023/08/28 04:29:25;;;;;;;2.33;1.83;;;14.30;99.90;;;;;;5025397;28;20671;-88
2023/08/28 04:31:52;;;;;;;1.43;0.87;;;14.40;99.90;;;;;;5024461;28;20762;-84
2023/08/28 04:34:18;;;;;;;0.97;0.90;;;14.20;99.90;;;;;;5007571;28;20349;-87
2023/08/28 04:36:44;;;;;;;1.27;1.17;;;14.00;99.90;;;;;;5024527;28;20222;-85
2023/08/28 04:39:09;;;;;;;1.13;1.00;;;13.90;99.90;;;;;;5024008;28;20218;-84
2023/08/28 04:41:35;;;;;;;1.20;0.87;;;13.90;99.90;;;;;;5025179;28;20554;-87
2023/08/28 04:44:01;;;;;;;0.67;0.67;;;13.90;99.90;;;;;;5007331;28;20210;-87
2023/08/28 04:46:28;;;;;;;2.80;1.40;;;13.80;99.90;;;;;;5025068;28;20245;-86
2023/08/28 04:48:54;;;;;;;0.70;0.70;;;13.70;99.90;;;;;;5041315;28;20627;-86
2023/08/28 04:51:20;;;;;;;1.33;0.63;;;13.70;99.90;;;;;;5007629;28;21054;-85
2023/08/28 04:53:46;;;;;;;1.23;0.90;;;13.70;99.90;;;;;;5025153;28;20263;-85
2023/08/28 04:56:11;;;;;;;1.03;1.03;;;13.60;99.90;;;;;;5024759;28;20209;-87
2023/08/28 04:58:37;;;;;;;6.90;1.30;;;13.70;99.90;;;;;;5040096;28;20238;-86
2023/08/28 05:01:03;;;;;;;1.23;1.10;;;13.70;99.90;;;;;;5024376;28;20247;-85
2023/08/28 05:03:29;;;;;;;1.57;1.47;;;13.80;99.90;;;;;;5042096;28;20406;-85
2023/08/28 05:05:54;;;;;;;1.73;1.43;;;13.90;99.90;;;;;;5025163;28;20263;-88
2023/08/28 05:08:20;;;;;;;2.20;1.10;;;14.00;99.90;;;;;;5040690;28;20222;-86
2023/08/28 05:10:46;;;;;;;1.60;1.50;;;14.20;99.90;;;;;;5024161;28;20796;-85
2023/08/28 05:13:13;;;;;;;3.70;1.10;;;14.40;99.90;;;;;;5007609;28;20216;-86
2023/08/28 05:15:38;;;;;;;2.27;1.40;;;14.50;99.90;;;;;;5024508;28;20221;-83
2023/08/28 05:18:04;;;;;;;2.03;1.60;;;14.60;99.90;;;;;;5024498;28;20196;-88
2023/08/28 05:20:30;;;;;;;3.03;1.67;;;14.80;99.90;;;;;;5007434;28;20230;-86
2023/08/28 05:22:55;;;;;;;3.20;1.07;;;15.00;99.90;;;;;;5024090;28;20218;-84
2023/08/28 05:25:21;;;;;;;2.70;1.07;;;15.10;99.90;;;;;;5024087;28;20225;-85
2023/08/28 05:27:47;;;;;;;2.23;1.30;;;15.30;99.90;;;;;;5000667;28;20218;-84
2023/08/28 05:30:13;;;;;;;1.77;1.20;;;15.50;99.90;;;;;;5036102;28;20187;-87
2023/08/28 05:32:38;;;;;;;1.50;1.40;;;15.80;99.90;;;;;;5021001;28;20221;-87
2023/08/28 05:35:05;;;;;;;1.60;1.33;;;16.00;99.90;;;;;;5020770;28;20218;-86
2023/08/28 05:37:31;;;;;;;1.37;1.00;;;16.20;99.90;;;;;;5011586;28;20218;-87
2023/08/28 05:39:57;;;;;;;2.73;1.53;;;16.30;99.90;;;;;;5026329;28;20284;-84
2023/08/28 05:42:23;;;;;;;6.10;1.60;;;16.40;99.90;;;;;;5021778;28;20190;-87
2023/08/28 05:44:49;;;;;;;1.17;0.97;;;16.30;99.90;;;;;;5004309;28;20274;-87
2023/08/28 05:47:14;;;;;;;1.20;0.90;;;16.20;99.90;;;;;;5053887;28;20210;-86
2023/08/28 05:49:41;;;;;;;2.60;1.20;;;16.20;99.90;;;;;;5027512;28;20230;-86
2023/08/28 05:52:06;;;;;;;6.00;1.33;;;16.30;99.90;;;;;;5010550;28;20226;-83
2023/08/28 05:54:32;;;;;;;1.33;1.13;;;16.30;99.90;;;;;;5003209;28;20272;-87
2023/08/28 05:56:58;;;;;;;1.83;1.10;;;16.50;99.90;;;;;;4970513;28;20690;-88
2023/08/28 05:59:23;;;;;;;4.43;1.17;;;17.10;99.90;;;;;;5005159;28;20613;-85
2023/08/28 06:01:49;;;;;;;2.20;1.40;;;18.40;99.90;;;;;;5003555;28;20766;-84
2023/08/28 06:04:15;;;;;;;2.60;2.00;;;20.80;99.90;;;;;;5000035;28;20739;-83
2023/08/28 06:06:40;;;;;;;1.20;1.10;;;23.40;99.90;;;;;;5005041;28;20584;-88
2023/08/28 06:09:07;;;;;;;3.13;1.43;;;26.10;99.90;;;;;;5019871;28;21057;-84
2023/08/28 06:11:33;;;;;;;1.10;0.80;;;28.20;99.90;;;;;;5001397;28;20203;-83
2023/08/28 06:13:59;;;;;;;1.30;0.97;;;29.90;99.90;;;;;;4998805;28;20222;-87
2023/08/28 06:16:25;;;;;;;1.10;1.10;;;31.00;99.90;;;;;;5010732;28;20494;-86
2023/08/28 06:18:51;;;;;;;2.60;0.90;;;31.90;99.90;;;;;;5012505;28;20323;-86
2023/08/28 06:21:17;;;;;;;1.08;1.00;;;32.60;99.90;;;;;;4999780;28;20239;-85
2023/08/28 06:23:43;;;;;;;1.50;0.93;;;33.00;99.90;;;;;;4983804;28;20255;-85
2023/08/28 06:26:08;;;;;;;4.97;0.95;;;33.40;99.90;;;;;;5016359;28;20222;-85
2023/08/28 06:28:34;;;;;;;2.42;0.88;;;33.80;99.90;;;;;;5008328;28;21133;-86
2023/08/28 06:31:03;;;;;;;2.03;1.05;;;33.80;99.90;;;;;;5001314;28;20215;-84
2023/08/28 06:33:29;;;;;;;0.60;0.50;;;32.60;99.90;;;;;;5003647;28;20254;-88
2023/08/28 06:35:54;;;;;;;1.08;0.90;;;30.10;99.90;;;;;;5020163;28;20703;-87
2023/08/28 06:38:20;;;;;;;2.38;0.63;;;27.80;99.90;;;;;;4984362;28;20220;-86
2023/08/28 06:40:50;;;;;;;0.60;0.60;;;25.50;99.90;;;;;;4982849;28;20251;-85
2023/08/28 06:43:17;;;;;;;0.93;0.65;;;23.10;99.90;;;;;;5007861;28;20341;-86
2023/08/28 06:45:43;;;;;;;3.35;0.40;;;22.10;99.90;;;;;;4997740;28;20261;-85
2023/08/28 06:48:09;;;;;;;0.50;0.50;;;21.50;99.90;;;;;;4998512;28;20191;-87
2023/08/28 06:50:35;;;;;;;2.00;0.90;;;21.30;99.90;;;;;;4999464;28;20202;-85
2023/08/28 06:53:02;;;;;;;0.47;0.47;;;21.30;99.90;;;;;;4998637;28;20215;-86
2023/08/28 06:55:28;;;;;;;1.13;0.63;;;21.60;99.90;;;;;;5008185;28;20817;-88
2023/08/28 06:57:54;;;;;;;2.17;0.50;;;21.20;99.90;;;;;;4981580;28;20241;-87
2023/08/28 07:00:21;;;;;;;0.90;0.57;;;21.80;99.90;;;;;;4984700;28;20320;-83
2023/08/28 07:02:47;;;;;;;0.40;0.40;;;23.50;99.90;;;;;;5019165;28;20241;-84
2023/08/28 07:05:13;;;;;;;0.60;0.60;;;25.30;99.90;;;;;;5002175;28;21036;-88
2023/08/28 07:07:39;;;;;;;0.80;0.75;;;27.50;99.90;;;;;;4982671;28;21002;-85
2023/08/28 07:10:06;;;;;;;0.55;0.55;;;29.50;99.90;;;;;;5007049;28;20692;-86
2023/08/28 07:12:33;;;;;;;0.50;0.50;;;30.00;99.90;;;;;;5015212;28;20219;-86
2023/08/28 07:15:12;;;;;;;0.75;0.60;;;27.70;99.90;;;;;;4999235;28;20559;-84
2023/08/28 07:17:37;;;;;;;0.55;0.50;;;23.80;99.90;;;;;;4998165;28;20211;-85
2023/08/28 07:20:04;;;;;;;0.70;0.60;;;22.10;99.90;;;;;;4997701;28;20264;-84
2023/08/28 07:22:30;;;;;;;0.45;0.45;;;22.60;99.90;;;;;;5008059;28;20227;-83
2023/08/28 07:24:56;;;;;;;0.75;0.57;;;23.70;99.90;;;;;;4999770;28;20207;-87
2023/08/28 07:27:22;;;;;;;0.60;0.40;;;24.20;99.90;;;;;;4984607;28;20203;-86
2023/08/28 07:29:48;;;;;;;0.65;0.65;;;25.10;99.90;;;;;;5018255;28;20232;-85
2023/08/28 07:32:14;;;;;;;1.95;1.05;;;24.30;99.90;;;;;;5000943;28;20297;-88
2023/08/28 07:34:40;;;;;;;0.70;0.60;;;24.80;99.90;;;;;;4998697;28;20298;-87
2023/08/28 07:37:06;;;;;;;1.77;0.47;;;25.70;99.90;;;;;;5006051;28;20226;-86
2023/08/28 07:39:31;;;;;;;0.65;0.57;;;25.20;99.90;;;;;;5015596;28;20288;-87
2023/08/28 07:41:57;;;;;;;1.50;0.90;;;25.90;99.90;;;;;;4999213;28;20184;-86
2023/08/28 07:44:23;;;;;;;0.60;0.52;;;25.40;99.90;;;;;;4981352;28;20306;-87
2023/08/28 07:46:49;;;;;;;0.63;0.60;;;24.80;99.90;;;;;;5011889;28;20252;-84
2023/08/28 07:49:15;;;;;;;4.18;0.60;;;24.60;99.90;;;;;;5008482;28;20562;-82
2023/08/28 07:51:41;;;;;;;0.68;0.40;;;26.10;99.90;;;;;;4998549;28;20220;-87
2023/08/28 07:54:06;;;;;;;0.70;0.63;;;27.20;99.90;;;;;;4981911;28;20206;-82
2023/08/28 07:56:32;;;;;;;0.82;0.70;;;27.60;99.90;;;;;;5018878;28;20202;-84
2023/08/28 07:58:58;;;;;;;0.40;0.40;;;27.70;99.90;;;;;;5002180;28;20235;-83
2023/08/28 08:01:24;;;;;;;1.85;0.85;;;24.90;99.90;;;;;;4999210;28;20215;-84
2023/08/28 08:03:50;;;;;;;0.47;0.47;;;22.80;99.90;;;;;;5005178;28;20218;-84
2023/08/28 08:06:17;;;;;;;0.57;0.52;;;22.00;99.90;;;;;;4989815;28;20202;-82
2023/08/28 08:08:45;;;;;;;1.25;0.60;;;22.60;99.90;;;;;;5043134;28;20186;-86
2023/08/28 08:11:11;;;;;;;0.80;0.50;;;23.10;99.90;;;;;;5007331;28;20329;-87
2023/08/28 08:13:37;;;;;;;0.95;0.60;;;23.80;99.90;;;;;;5034977;28;20213;-85
2023/08/28 08:16:06;;;;;;;0.50;0.50;;;24.50;99.90;;;;;;5033759;28;20214;-85
2023/08/28 08:18:32;;;;;;;0.30;0.30;;;24.70;99.90;;;;;;5024768;28;20260;-87
2023/08/28 08:20:58;;;;;;;1.20;0.65;;;24.50;99.90;;;;;;5025057;28;20178;-87
2023/08/28 08:23:24;;;;;;;1.02;0.60;;;24.50;99.90;;;;;;5023867;28;20694;-87
2023/08/28 08:25:52;;;;;;;4.05;0.70;;;24.10;99.90;;;;;;5036192;28;20214;-87
2023/08/28 08:28:18;;;;;;;0.82;0.50;;;23.80;99.90;;;;;;5014340;28;20219;-88
2023/08/28 08:30:44;;;;;;;2.50;0.50;;;23.80;99.90;;;;;;5027040;28;20214;-82
2023/08/28 08:33:10;;;;;;;0.95;0.40;;;24.30;99.90;;;;;;5024077;28;20186;-86
2023/08/28 08:35:36;;;;;;;0.55;0.43;;;24.10;99.90;;;;;;4989078;28;20179;-87
2023/08/28 08:38:02;;;;;;;5.07;0.50;;;24.30;99.90;;;;;;5003330;28;20202;-87
2023/08/28 08:40:28;;;;;;;2.35;0.60;;;24.50;99.90;;;;;;5017109;28;20229;-85
2023/08/28 08:42:54;;;;;;;1.48;0.80;;;23.50;99.90;;;;;;4993837;28;20748;-83
2023/08/28 08:45:29;;;;;;;1.05;0.50;;;25.50;99.90;;;;;;5039674;28;20175;-88
2023/08/28 08:47:58;;;;;;;0.45;0.45;;;25.70;99.90;;;;;;4992838;28;20253;-89
2023/08/28 08:50:24;;;;;;;0.50;0.50;;;24.60;99.90;;;;;;5040800;28;20214;-84
2023/08/28 08:52:51;;;;;;;1.77;0.70;;;22.80;99.90;;;;;;5009688;28;20301;-85
2023/08/28 08:55:27;;;;;;;0.50;0.40;;;22.40;99.90;;;;;;5031377;28;20220;-87
2023/08/28 08:58:02;;;;;;;0.65;0.55;;;24.00;99.90;;;;;;5017044;28;20237;-84
2023/08/28 09:00:28;;;;;;;0.80;0.63;;;24.70;99.90;;;;;;5024644;28;20308;-86
2023/08/28 09:02:58;;;;;;;1.30;0.93;;;25.30;99.90;;;;;;5024680;28;20322;-82
2023/08/28 09:05:24;;;;;;;0.40;0.40;;;25.90;99.90;;;;;;5021335;28;20285;-83
2023/08/28 09:07:51;;;;;;;2.70;0.90;;;25.80;99.90;;;;;;5035303;28;20613;-84
2023/08/28 09:10:17;;;;;;;0.50;0.40;;;23.60;99.90;;;;;;5047049;28;20214;-87
2023/08/28 09:12:43;;;;;;;0.95;0.40;;;22.70;99.90;;;;;;5009542;28;20683;-87
2023/08/28 09:15:13;;;;;;;0.50;0.40;;;21.90;99.90;;;;;;5006176;28;20201;-84
2023/08/28 09:17:40;;;;;;;1.38;0.60;;;22.60;99.90;;;;;;4988186;28;20272;-84
2023/08/28 09:20:24;;;;;;;0.40;0.40;;;23.80;99.90;;;;;;5052807;28;20234;-87
2023/08/28 09:22:51;;;;;;;0.30;0.30;;;24.00;99.90;;;;;;5026931;28;20341;-86
2023/08/28 09:25:18;;;;;;;0.32;0.32;;;23.70;99.90;;;;;;5013637;28;20613;-85
2023/08/28 09:27:45;;;;;;;0.55;0.45;;;24.40;99.90;;;;;;5018928;28;20221;-85
2023/08/28 09:30:36;;;;;;;0.95;0.40;;;24.80;99.90;;;;;;5004775;28;20279;-84
2023/08/28 09:33:06;;;;;;;0.50;0.50;;;26.00;99.90;;;;;;5040417;28;20214;-87
2023/08/28 09:35:43;;;;;;;2.65;0.50;;;25.50;99.90;;;;;;5004056;28;20249;-85
2023/08/28 09:38:09;;;;;;;2.95;0.57;;;24.50;99.90;;;;;;5019097;28;20225;-86
2023/08/28 09:40:37;;;;;;;1.05;0.57;;;24.80;99.90;;;;;;5028589;28;20688;-86
2023/08/28 09:43:16;;;;;;;0.95;0.52;;;23.30;99.90;;;;;;5010868;28;20222;-86
2023/08/28 09:45:44;;;;;;;0.60;0.60;;;23.80;99.90;;;;;;5017451;28;20260;-81
2023/08/28 09:48:10;;;;;;;3.70;0.70;;;25.20;99.90;;;;;;5003464;28;20189;-84
2023/08/28 09:50:41;;;;;;;0.60;0.60;;;26.40;99.90;;;;;;5056064;28;20929;-85
2023/08/28 09:53:11;;;;;;;0.50;0.50;;;27.20;99.90;;;;;;5023747;28;20215;-85
2023/08/28 09:55:45;;;;;;;0.40;0.40;;;27.50;99.90;;;;;;5032963;28;20216;-85
2023/08/28 09:58:11;;;;;;;0.65;0.65;;;26.80;99.90;;;;;;5031052;28;20249;-83
2023/08/28 10:00:39;;;;;;;0.82;0.50;;;26.30;99.90;;;;;;5024329;28;20335;-84
2023/08/28 10:03:16;;;;;;;0.40;0.40;;;26.10;99.90;;;;;;5010409;28;20230;-85
2023/08/28 10:05:44;;;;;;;0.70;0.70;;;25.60;99.90;;;;;;5020308;28;20248;-85
2023/08/28 10:08:11;;;;;;;0.50;0.50;;;25.00;99.90;;;;;;5020215;28;20686;-85
2023/08/28 10:10:41;;;;;;;1.70;0.40;;;25.00;99.90;;;;;;5006607;28;20223;-85
2023/08/28 10:13:13;;;;;;;1.45;0.63;;;25.20;99.90;;;;;;4999872;28;20587;-86
2023/08/28 10:16:03;;;;;;;0.52;0.40;;;25.70;99.90;;;;;;5032723;28;20219;-82
2023/08/28 10:18:39;;;;;;;1.25;0.40;;;26.40;99.90;;;;;;4999694;28;20207;-84
2023/08/28 10:21:06;;;;;;;1.27;0.40;;;26.70;99.90;;;;;;5000024;28;20528;-83
2023/08/28 10:23:37;;;;;;;2.40;0.50;;;25.60;99.90;;;;;;5019103;28;20480;-82
2023/08/28 10:26:03;;;;;;;1.10;0.75;;;24.70;99.90;;;;;;5018151;28;20229;-83
2023/08/28 10:28:30;;;;;;;1.35;1.02;;;23.50;99.90;;;;;;5019742;28;20226;-85
2023/08/28 10:30:57;;;;;;;1.02;0.50;;;23.80;99.90;;;;;;5019909;28;20273;-85
2023/08/28 10:33:23;;;;;;;0.30;0.30;;;24.60;99.90;;;;;;5019544;28;20203;-82
2023/08/28 10:35:54;;;;;;;0.70;0.68;;;23.60;99.90;;;;;;5019724;28;20183;-86
2023/08/28 10:38:20;;;;;;;0.30;0.30;;;23.20;99.90;;;;;;5018473;28;20283;-85
2023/08/28 10:40:52;;;;;;;0.40;0.40;;;24.00;99.90;;;;;;5034536;28;20206;-85
2023/08/28 10:43:20;;;;;;;0.77;0.30;;;22.90;99.90;;;;;;5018547;28;20312;-85
2023/08/28 10:45:47;;;;;;;0.32;0.32;;;22.30;99.90;;;;;;5019668;28;20215;-83
2023/08/28 10:48:15;;;;;;;1.75;0.88;;;21.90;99.90;;;;;;5018590;28;20217;-85
2023/08/28 10:50:40;;;;;;;0.57;0.50;;;22.00;99.90;;;;;;5020776;28;20198;-85
2023/08/28 10:53:06;;;;;;;0.40;0.40;;;22.10;99.90;;;;;;5001661;28;20219;-87
2023/08/28 10:55:35;;;;;;;0.77;0.35;;;22.40;99.90;;;;;;5001940;28;20218;-84
2023/08/28 10:58:02;;;;;;;1.30;0.40;;;23.50;99.90;;;;;;5051462;28;20244;-84
2023/08/28 11:00:29;;;;;;;0.47;0.35;;;22.90;99.90;;;;;;5018154;28;20229;-86
2023/08/28 11:03:09;;;;;;;0.50;0.50;;;21.40;99.90;;;;;;5030212;28;20243;-84
2023/08/28 11:05:38;;;;;;;0.40;0.40;;;21.70;99.90;;;;;;5040271;28;20230;-86
2023/08/28 11:08:04;;;;;;;0.65;0.50;;;22.70;99.90;;;;;;5053042;28;20228;-85
2023/08/28 11:10:31;;;;;;;1.00;0.60;;;22.30;99.90;;;;;;5039152;28;20218;-85
2023/08/28 11:13:03;;;;;;;1.58;0.40;;;22.30;99.90;;;;;;5039160;28;20221;-84
2023/08/28 11:15:30;;;;;;;0.25;0.25;;;22.50;99.90;;;;;;5039434;28;20232;-82
2023/08/28 11:18:26;;;;;;;0.35;0.35;;;22.60;99.90;;;;;;5022423;28;20261;-84
2023/08/28 11:20:52;;;;;;;0.40;0.40;;;22.80;99.90;;;;;;5021324;28;20280;-86
2023/08/28 11:23:23;;;;;;;0.40;0.40;;;22.50;99.90;;;;;;5020451;28;20278;-83
2023/08/28 11:25:50;;;;;;;0.60;0.60;;;22.50;99.90;;;;;;5021920;28;20241;-85
2023/08/28 11:28:46;;;;;;;0.77;0.60;;;23.80;99.90;;;;;;5038398;28;21201;-83
2023/08/28 11:31:14;;;;;;;1.83;0.52;;;23.50;99.90;;;;;;5053134;28;20313;-85
2023/08/28 11:33:45;;;;;;;0.95;0.50;;;22.90;99.90;;;;;;5020990;28;20502;-84
2023/08/28 11:36:18;;;;;;;0.70;0.38;;;23.00;99.90;;;;;;5024050;28;20185;-86
2023/08/28 11:38:48;;;;;;;0.40;0.40;;;23.50;99.90;;;;;;5043579;28;20222;-86
2023/08/28 11:41:14;;;;;;;0.30;0.30;;;22.80;99.90;;;;;;5058021;28;20517;-85
2023/08/28 11:43:42;;;;;;;0.50;0.50;;;22.20;99.90;;;;;;5025328;28;20225;-83
2023/08/28 11:46:09;;;;;;;0.50;0.40;;;21.90;99.90;;;;;;5008514;28;20202;-86
2023/08/28 11:48:42;;;;;;;0.98;0.32;;;21.80;99.90;;;;;;5042575;28;20432;-85
2023/08/28 11:51:09;;;;;;;0.77;0.40;;;21.50;99.90;;;;;;5017290;28;20327;-85
2023/08/28 11:53:40;;;;;;;1.30;0.77;;;21.60;99.90;;;;;;5042439;28;20195;-86
2023/08/28 11:56:08;;;;;;;0.73;0.30;;;21.20;99.90;;;;;;5024775;28;20229;-86
2023/08/28 11:58:34;;;;;;;0.45;0.45;;;21.30;99.90;;;;;;5008580;28;21173;-85
2023/08/28 12:01:05;;;;;;;1.67;0.47;;;21.10;99.90;;;;;;5025319;28;20559;-86
2023/08/28 12:03:32;;;;;;;1.15;0.40;;;20.70;99.90;;;;;;5042417;28;20238;-83
2023/08/28 12:06:08;;;;;;;0.70;0.70;;;20.60;99.90;;;;;;5025140;28;20202;-85
2023/08/28 12:08:36;;;;;;;0.40;0.40;;;20.70;99.90;;;;;;5057511;28;20209;-84
2023/08/28 12:11:07;;;;;;;0.90;0.60;;;21.10;99.90;;;;;;5026591;28;20229;-86
2023/08/28 12:13:33;;;;;;;0.93;0.40;;;21.20;99.90;;;;;;5016673;28;20237;-85
2023/08/28 12:16:17;;;;;;;1.73;0.50;;;21.00;99.90;;;;;;5016957;28;20226;-84
2023/08/28 12:18:51;;;;;;;0.50;0.50;;;21.00;99.90;;;;;;5028309;28;20233;-84
2023/08/28 12:21:38;;;;;;;0.55;0.50;;;21.10;99.90;;;;;;5054896;28;20186;-82
2023/08/28 12:24:10;;;;;;;0.52;0.43;;;21.00;99.90;;;;;;4991748;28;20187;-82
2023/08/28 12:26:36;;;;;;;0.30;0.30;;;21.50;99.90;;;;;;5043007;28;20186;-87
2023/08/28 12:29:06;;;;;;;1.17;0.50;;;21.60;99.90;;;;;;5026116;28;20231;-87
2023/08/28 12:31:34;;;;;;;0.43;0.43;;;21.90;99.90;;;;;;5033704;28;20225;-83
2023/08/28 12:34:12;;;;;;;1.00;0.50;;;21.60;99.90;;;;;;5017119;28;20233;-87
2023/08/28 12:36:47;;;;;;;0.88;0.60;;;21.70;99.90;;;;;;5008598;28;20217;-86
2023/08/28 12:39:19;;;;;;;0.75;0.40;;;21.80;99.90;;;;;;5040560;28;20300;-86
2023/08/28 12:41:55;;;;;;;1.10;1.05;;;22.20;99.90;;;;;;5023315;28;20221;-87
2023/08/28 12:44:22;;;;;;;1.25;0.57;;;22.40;99.90;;;;;;5022206;28;20262;-86
2023/08/28 12:46:49;;;;;;;1.13;0.55;;;22.20;99.90;;;;;;5009839;28;20222;-83
2023/08/28 12:49:18;;;;;;;1.30;0.50;;;21.90;99.90;;;;;;5012990;28;20340;-85
2023/08/28 12:51:44;;;;;;;0.30;0.30;;;21.80;99.90;;;;;;5002266;28;20242;-84
2023/08/28 12:54:12;;;;;;;0.40;0.40;;;21.70;99.90;;;;;;5003388;28;20187;-87